NWA505 KLGA-KMSP
Flight info
| Callsign | NWA505 |
|---|---|
| Flight time | 2h 33m |
| Altitude | 36000 |
| Route | GAYEL Q818 WOZEE NOSIK Q812 ZOHAN IDIOM MUSCL4 |
| Aircraft | A320/M-SDE3FGHIRWY/LB1 |
Departure
| Time | 2026-05-06 14:33 |
|---|---|
| Airport | LaGuardia Airport (KLGA) |
Arrival
| Time | 2026-05-06 17:07 |
|---|---|
| Airport | Minneapolis–Saint Paul International Airport / Wold–Chamberlain Field (KMSP) |
| Time | Latitude | Longitude | Altitude | Speed | Heading |
|---|---|---|---|---|---|
| 2026-05-06 13:48 | 40.77055 | -73.86301 | 18 ft | 0 kts | 312° |
| 2026-05-06 14:21 | 40.77044 | -73.86284 | 17 ft | 4 kts | 313° |
| 2026-05-06 14:22 | 40.77025 | -73.86262 | 18 ft | 4 kts | 349° |
| 2026-05-06 14:22 | 40.77014 | -73.86262 | 19 ft | 0 kts | 43° |
| 2026-05-06 14:26 | 40.77032 | -73.86240 | 17 ft | 7 kts | 43° |
| 2026-05-06 14:27 | 40.77063 | -73.86202 | 19 ft | 6 kts | 43° |
| 2026-05-06 14:27 | 40.77109 | -73.86146 | 17 ft | 10 kts | 43° |
| 2026-05-06 14:27 | 40.77168 | -73.86091 | 17 ft | 11 kts | 12° |
| 2026-05-06 14:27 | 40.77233 | -73.86115 | 17 ft | 9 kts | 5° |
| 2026-05-06 14:28 | 40.77284 | -73.86103 | 18 ft | 6 kts | 331° |
| 2026-05-06 14:28 | 40.77311 | -73.86162 | 18 ft | 10 kts | 297° |
| 2026-05-06 14:28 | 40.77351 | -73.86246 | 17 ft | 13 kts | 303° |
| 2026-05-06 14:28 | 40.77399 | -73.86345 | 17 ft | 14 kts | 302° |
| 2026-05-06 14:29 | 40.77457 | -73.86468 | 17 ft | 18 kts | 302° |
| 2026-05-06 14:29 | 40.77525 | -73.86609 | 17 ft | 17 kts | 303° |
| 2026-05-06 14:29 | 40.77586 | -73.86737 | 17 ft | 16 kts | 302° |
| 2026-05-06 14:29 | 40.77640 | -73.86851 | 18 ft | 14 kts | 302° |
| 2026-05-06 14:30 | 40.77689 | -73.86953 | 17 ft | 12 kts | 302° |
| 2026-05-06 14:30 | 40.77734 | -73.87046 | 18 ft | 12 kts | 302° |
| 2026-05-06 14:30 | 40.77770 | -73.87122 | 18 ft | 17 kts | 302° |
| 2026-05-06 14:30 | 40.77829 | -73.87245 | 18 ft | 15 kts | 302° |
| 2026-05-06 14:31 | 40.77882 | -73.87356 | 18 ft | 13 kts | 302° |
| 2026-05-06 14:31 | 40.77931 | -73.87456 | 18 ft | 15 kts | 302° |
| 2026-05-06 14:31 | 40.78002 | -73.87619 | 18 ft | 26 kts | 297° |
| 2026-05-06 14:31 | 40.78083 | -73.87777 | 18 ft | 16 kts | 303° |
| 2026-05-06 14:32 | 40.78157 | -73.87863 | 18 ft | 13 kts | 346° |
| 2026-05-06 14:32 | 40.78210 | -73.87812 | 18 ft | 9 kts | 97° |
| 2026-05-06 14:32 | 40.78177 | -73.87739 | 17 ft | 10 kts | 123° |
| 2026-05-06 14:32 | 40.78114 | -73.87608 | 17 ft | 36 kts | 122° |
| 2026-05-06 14:33 | 40.77838 | -73.87035 | 19 ft | 108 kts | 122° |
| 2026-05-06 14:33 | 40.77335 | -73.85987 | 65 ft | 155 kts | 122° |
| 2026-05-06 14:33 | 40.76750 | -73.84853 | 822 ft | 147 kts | 131° |
| 2026-05-06 14:33 | 40.76167 | -73.83715 | 1408 ft | 154 kts | 134° |
| 2026-05-06 14:34 | 40.75530 | -73.82462 | 1681 ft | 176 kts | 132° |
| 2026-05-06 14:34 | 40.74867 | -73.80945 | 1963 ft | 205 kts | 126° |
| 2026-05-06 14:34 | 40.74252 | -73.79105 | 2216 ft | 235 kts | 120° |
| 2026-05-06 14:34 | 40.74023 | -73.76805 | 2562 ft | 273 kts | 88° |
| 2026-05-06 14:35 | 40.74692 | -73.74323 | 3027 ft | 302 kts | 59° |
| 2026-05-06 14:35 | 40.76166 | -73.72287 | 3746 ft | 312 kts | 31° |
| 2026-05-06 14:35 | 40.78148 | -73.71228 | 4585 ft | 307 kts | 3° |
| 2026-05-06 14:35 | 40.80238 | -73.71350 | 5415 ft | 297 kts | 336° |
| 2026-05-06 14:36 | 40.82031 | -73.72524 | 6271 ft | 284 kts | 313° |
| 2026-05-06 14:36 | 40.83567 | -73.74158 | 7090 ft | 285 kts | 312° |
| 2026-05-06 14:36 | 40.85111 | -73.75817 | 7912 ft | 288 kts | 312° |
| 2026-05-06 14:36 | 40.86676 | -73.77494 | 8700 ft | 292 kts | 312° |
| 2026-05-06 14:37 | 40.88262 | -73.79194 | 9494 ft | 296 kts | 313° |
| 2026-05-06 14:37 | 40.89873 | -73.80914 | 10222 ft | 300 kts | 312° |
| 2026-05-06 14:37 | 40.91541 | -73.82710 | 10557 ft | 322 kts | 313° |
| 2026-05-06 14:37 | 40.93340 | -73.84661 | 10749 ft | 346 kts | 313° |
| 2026-05-06 14:38 | 40.95242 | -73.86713 | 11180 ft | 358 kts | 313° |
| 2026-05-06 14:38 | 40.97194 | -73.88800 | 11839 ft | 363 kts | 314° |
| 2026-05-06 14:38 | 40.99169 | -73.90899 | 12573 ft | 366 kts | 314° |
| 2026-05-06 14:38 | 41.01168 | -73.93022 | 13297 ft | 368 kts | 313° |
| 2026-05-06 14:39 | 41.03171 | -73.95153 | 13988 ft | 370 kts | 313° |
| 2026-05-06 14:39 | 41.05179 | -73.97297 | 14618 ft | 372 kts | 313° |
| 2026-05-06 14:39 | 41.07200 | -73.99462 | 15241 ft | 375 kts | 313° |
| 2026-05-06 14:39 | 41.09232 | -74.01648 | 15871 ft | 378 kts | 313° |
| 2026-05-06 14:40 | 41.11278 | -74.03854 | 16518 ft | 381 kts | 313° |
| 2026-05-06 14:40 | 41.13337 | -74.06084 | 17146 ft | 383 kts | 313° |
| 2026-05-06 14:40 | 41.15410 | -74.08330 | 17747 ft | 386 kts | 313° |
| 2026-05-06 14:40 | 41.17499 | -74.10592 | 18312 ft | 389 kts | 314° |
| 2026-05-06 14:41 | 41.19605 | -74.12867 | 18846 ft | 391 kts | 314° |
| 2026-05-06 14:41 | 41.21723 | -74.15153 | 19406 ft | 393 kts | 314° |
| 2026-05-06 14:41 | 41.23848 | -74.17448 | 19986 ft | 394 kts | 314° |
| 2026-05-06 14:41 | 41.25914 | -74.19675 | 20534 ft | 395 kts | 314° |
| 2026-05-06 14:42 | 41.28055 | -74.21986 | 21078 ft | 397 kts | 314° |
| 2026-05-06 14:42 | 41.30199 | -74.24314 | 21604 ft | 399 kts | 314° |
| 2026-05-06 14:42 | 41.32346 | -74.26659 | 22134 ft | 400 kts | 314° |
| 2026-05-06 14:42 | 41.34501 | -74.29012 | 22645 ft | 401 kts | 314° |
| 2026-05-06 14:43 | 41.36669 | -74.31369 | 23151 ft | 403 kts | 314° |
| 2026-05-06 14:43 | 41.38840 | -74.33741 | 23596 ft | 404 kts | 312° |
| 2026-05-06 14:43 | 41.40775 | -74.36404 | 23970 ft | 397 kts | 302° |
| 2026-05-06 14:43 | 41.42301 | -74.39436 | 24347 ft | 392 kts | 294° |
| 2026-05-06 14:44 | 41.43662 | -74.42592 | 24713 ft | 394 kts | 294° |
| 2026-05-06 14:44 | 41.45033 | -74.45768 | 25075 ft | 396 kts | 294° |
| 2026-05-06 14:44 | 41.46406 | -74.48954 | 25429 ft | 397 kts | 294° |
| 2026-05-06 14:45 | 41.49154 | -74.55323 | 26122 ft | 400 kts | 294° |
| 2026-05-06 14:45 | 41.50549 | -74.58548 | 26466 ft | 403 kts | 294° |
| 2026-05-06 14:45 | 41.51951 | -74.61790 | 26815 ft | 404 kts | 294° |
| 2026-05-06 14:45 | 41.53354 | -74.65044 | 27168 ft | 405 kts | 294° |
| 2026-05-06 14:46 | 41.54759 | -74.68313 | 27498 ft | 407 kts | 294° |
| 2026-05-06 14:46 | 41.56167 | -74.71588 | 27848 ft | 407 kts | 294° |
| 2026-05-06 14:46 | 41.57579 | -74.74874 | 28187 ft | 408 kts | 294° |
| 2026-05-06 14:46 | 41.58994 | -74.78165 | 28494 ft | 409 kts | 294° |
| 2026-05-06 14:47 | 41.60412 | -74.81467 | 28799 ft | 410 kts | 293° |
| 2026-05-06 14:47 | 41.61828 | -74.84781 | 29073 ft | 411 kts | 293° |
| 2026-05-06 14:47 | 41.63247 | -74.88104 | 29341 ft | 412 kts | 293° |
| 2026-05-06 14:47 | 41.64467 | -74.90963 | 29572 ft | 413 kts | 293° |
| 2026-05-06 14:48 | 41.65889 | -74.94301 | 29840 ft | 413 kts | 293° |
| 2026-05-06 14:48 | 41.67309 | -74.97632 | 30160 ft | 411 kts | 293° |
| 2026-05-06 14:48 | 41.68723 | -75.00952 | 30465 ft | 411 kts | 293° |
| 2026-05-06 14:48 | 41.70136 | -75.04260 | 30774 ft | 410 kts | 293° |
| 2026-05-06 14:49 | 41.71536 | -75.07558 | 31094 ft | 406 kts | 292° |
| 2026-05-06 14:49 | 41.72924 | -75.10842 | 31338 ft | 405 kts | 293° |
| 2026-05-06 14:49 | 41.74314 | -75.14128 | 31584 ft | 406 kts | 292° |
| 2026-05-06 14:49 | 41.75703 | -75.17422 | 31859 ft | 404 kts | 292° |
| 2026-05-06 14:50 | 41.77084 | -75.20694 | 32097 ft | 404 kts | 292° |
| 2026-05-06 14:50 | 41.78466 | -75.23965 | 32364 ft | 404 kts | 292° |
| 2026-05-06 14:50 | 41.79847 | -75.27232 | 32682 ft | 402 kts | 292° |
| 2026-05-06 14:50 | 41.81222 | -75.30484 | 32993 ft | 399 kts | 292° |
| 2026-05-06 14:51 | 41.82590 | -75.33710 | 33262 ft | 399 kts | 292° |
| 2026-05-06 14:51 | 41.83956 | -75.36940 | 33533 ft | 397 kts | 291° |
| 2026-05-06 14:51 | 41.85313 | -75.40159 | 33812 ft | 397 kts | 291° |
| 2026-05-06 14:51 | 41.86666 | -75.43378 | 34111 ft | 395 kts | 291° |
| 2026-05-06 14:52 | 41.88005 | -75.46586 | 34470 ft | 392 kts | 291° |
| 2026-05-06 14:52 | 41.89325 | -75.49748 | 34821 ft | 386 kts | 291° |
| 2026-05-06 14:52 | 41.90630 | -75.52876 | 35110 ft | 382 kts | 291° |
| 2026-05-06 14:52 | 41.91922 | -75.55981 | 35378 ft | 379 kts | 291° |
| 2026-05-06 14:53 | 41.93207 | -75.59067 | 35610 ft | 378 kts | 291° |
| 2026-05-06 14:53 | 41.94488 | -75.62146 | 35786 ft | 376 kts | 291° |
| 2026-05-06 14:53 | 41.95757 | -75.65199 | 35826 ft | 374 kts | 291° |
| 2026-05-06 14:54 | 41.98272 | -75.71263 | 35825 ft | 374 kts | 291° |
| 2026-05-06 14:54 | 42.00682 | -75.76908 | 35801 ft | 373 kts | 291° |
| 2026-05-06 14:55 | 42.03199 | -75.83037 | 35798 ft | 375 kts | 291° |
| 2026-05-06 14:55 | 42.05707 | -75.89194 | 35814 ft | 375 kts | 291° |
| 2026-05-06 14:56 | 42.08234 | -75.95341 | 35811 ft | 376 kts | 291° |
| 2026-05-06 14:56 | 42.10770 | -76.01493 | 35820 ft | 376 kts | 291° |
| 2026-05-06 14:57 | 42.13313 | -76.07687 | 35822 ft | 376 kts | 291° |
| 2026-05-06 14:57 | 42.15818 | -76.13862 | 35826 ft | 373 kts | 287° |
| 2026-05-06 14:58 | 42.17869 | -76.20196 | 35824 ft | 371 kts | 286° |
| 2026-05-06 14:58 | 42.19915 | -76.26581 | 35823 ft | 371 kts | 286° |
| 2026-05-06 14:59 | 42.21960 | -76.32977 | 35831 ft | 371 kts | 286° |
| 2026-05-06 14:59 | 42.24003 | -76.39380 | 35835 ft | 371 kts | 286° |
| 2026-05-06 15:00 | 42.26047 | -76.45776 | 35841 ft | 371 kts | 286° |
| 2026-05-06 15:00 | 42.28087 | -76.52180 | 35848 ft | 371 kts | 286° |
| 2026-05-06 15:01 | 42.30119 | -76.58581 | 35852 ft | 371 kts | 286° |
| 2026-05-06 15:01 | 42.32137 | -76.64975 | 35859 ft | 369 kts | 285° |
| 2026-05-06 15:02 | 42.34154 | -76.71370 | 35871 ft | 370 kts | 286° |
| 2026-05-06 15:02 | 42.36173 | -76.77762 | 35880 ft | 370 kts | 286° |
| 2026-05-06 15:03 | 42.38182 | -76.84158 | 35876 ft | 370 kts | 285° |
| 2026-05-06 15:03 | 42.40192 | -76.90572 | 35874 ft | 370 kts | 285° |
| 2026-05-06 15:04 | 42.42200 | -76.96983 | 35881 ft | 370 kts | 285° |
| 2026-05-06 15:04 | 42.44200 | -77.03403 | 35888 ft | 370 kts | 285° |
| 2026-05-06 15:05 | 42.46201 | -77.09835 | 35889 ft | 371 kts | 285° |
| 2026-05-06 15:05 | 42.48198 | -77.16264 | 35884 ft | 369 kts | 285° |
| 2026-05-06 15:06 | 42.50182 | -77.22678 | 35873 ft | 369 kts | 285° |
| 2026-05-06 15:06 | 42.52036 | -77.28663 | 35877 ft | 370 kts | 285° |
| 2026-05-06 15:07 | 42.54024 | -77.35107 | 35879 ft | 370 kts | 285° |
| 2026-05-06 15:07 | 42.56005 | -77.41564 | 35897 ft | 371 kts | 285° |
| 2026-05-06 15:08 | 42.57983 | -77.48018 | 35907 ft | 371 kts | 285° |
| 2026-05-06 15:08 | 42.59942 | -77.54439 | 35909 ft | 371 kts | 285° |
| 2026-05-06 15:09 | 42.61914 | -77.60910 | 35916 ft | 371 kts | 285° |
| 2026-05-06 15:09 | 42.63564 | -77.66341 | 35921 ft | 371 kts | 285° |
| 2026-05-06 15:10 | 42.65540 | -77.72837 | 35921 ft | 371 kts | 285° |
| 2026-05-06 15:10 | 42.67456 | -77.79346 | 35920 ft | 370 kts | 284° |
| 2026-05-06 15:11 | 42.69266 | -77.85891 | 35915 ft | 370 kts | 283° |
| 2026-05-06 15:11 | 42.71071 | -77.92440 | 35919 ft | 370 kts | 284° |
| 2026-05-06 15:12 | 42.72887 | -77.98996 | 35904 ft | 370 kts | 284° |
| 2026-05-06 15:12 | 42.74712 | -78.05554 | 35901 ft | 371 kts | 284° |
| 2026-05-06 15:13 | 42.76223 | -78.11011 | 35907 ft | 371 kts | 283° |
| 2026-05-06 15:13 | 42.78036 | -78.17590 | 35909 ft | 371 kts | 283° |
| 2026-05-06 15:14 | 42.79845 | -78.24173 | 35909 ft | 371 kts | 283° |
| 2026-05-06 15:14 | 42.81655 | -78.30761 | 35906 ft | 371 kts | 283° |
| 2026-05-06 15:15 | 42.83461 | -78.37357 | 35900 ft | 372 kts | 283° |
| 2026-05-06 15:15 | 42.85143 | -78.43494 | 35902 ft | 373 kts | 283° |
| 2026-05-06 15:16 | 42.86955 | -78.50117 | 35903 ft | 373 kts | 283° |
| 2026-05-06 15:16 | 42.88760 | -78.56753 | 35907 ft | 374 kts | 283° |
| 2026-05-06 15:17 | 42.90559 | -78.63407 | 35912 ft | 374 kts | 283° |
| 2026-05-06 15:17 | 42.92354 | -78.70067 | 35916 ft | 375 kts | 283° |
| 2026-05-06 15:18 | 42.94207 | -78.76743 | 35920 ft | 378 kts | 285° |
| 2026-05-06 15:18 | 42.96329 | -78.83319 | 35921 ft | 380 kts | 287° |
| 2026-05-06 15:19 | 42.98527 | -78.89887 | 35921 ft | 380 kts | 287° |
| 2026-05-06 15:19 | 43.00676 | -78.96470 | 35916 ft | 379 kts | 286° |
| 2026-05-06 15:20 | 43.02510 | -79.02208 | 35918 ft | 379 kts | 286° |
| 2026-05-06 15:20 | 43.04623 | -79.08818 | 35910 ft | 380 kts | 286° |
| 2026-05-06 15:21 | 43.06739 | -79.15436 | 35906 ft | 380 kts | 286° |
| 2026-05-06 15:21 | 43.08849 | -79.22059 | 35907 ft | 380 kts | 286° |
| 2026-05-06 15:22 | 43.10956 | -79.28692 | 35904 ft | 380 kts | 286° |
| 2026-05-06 15:22 | 43.13057 | -79.35333 | 35899 ft | 380 kts | 286° |
| 2026-05-06 15:23 | 43.15156 | -79.41986 | 35897 ft | 381 kts | 286° |
| 2026-05-06 15:23 | 43.17256 | -79.48655 | 35899 ft | 382 kts | 286° |
| 2026-05-06 15:24 | 43.19360 | -79.55339 | 35902 ft | 382 kts | 286° |
| 2026-05-06 15:24 | 43.21304 | -79.61541 | 35907 ft | 383 kts | 286° |
| 2026-05-06 15:25 | 43.23404 | -79.68250 | 35906 ft | 383 kts | 286° |
| 2026-05-06 15:25 | 43.25500 | -79.74970 | 35907 ft | 384 kts | 286° |
| 2026-05-06 15:26 | 43.27592 | -79.81698 | 35909 ft | 384 kts | 286° |
| 2026-05-06 15:26 | 43.29689 | -79.88443 | 35908 ft | 384 kts | 286° |
| 2026-05-06 15:27 | 43.31778 | -79.95180 | 35909 ft | 384 kts | 286° |
| 2026-05-06 15:27 | 43.33863 | -80.01934 | 35907 ft | 384 kts | 286° |
| 2026-05-06 15:28 | 43.35799 | -80.08219 | 35906 ft | 384 kts | 286° |
| 2026-05-06 15:28 | 43.37880 | -80.14984 | 35880 ft | 384 kts | 286° |
| 2026-05-06 15:29 | 43.39954 | -80.21760 | 35883 ft | 385 kts | 286° |
| 2026-05-06 15:29 | 43.42023 | -80.28543 | 35875 ft | 385 kts | 286° |
| 2026-05-06 15:30 | 43.44085 | -80.35287 | 35877 ft | 385 kts | 286° |
| 2026-05-06 15:30 | 43.46160 | -80.42083 | 35876 ft | 385 kts | 286° |
| 2026-05-06 15:31 | 43.48223 | -80.48898 | 35878 ft | 386 kts | 286° |
| 2026-05-06 15:31 | 43.50284 | -80.55722 | 35882 ft | 386 kts | 286° |
| 2026-05-06 15:32 | 43.53377 | -80.65979 | 35888 ft | 387 kts | 286° |
| 2026-05-06 15:32 | 43.55439 | -80.72832 | 35894 ft | 387 kts | 286° |
| 2026-05-06 15:33 | 43.57491 | -80.79702 | 35906 ft | 388 kts | 286° |
| 2026-05-06 15:33 | 43.59549 | -80.86586 | 35915 ft | 388 kts | 286° |
| 2026-05-06 15:34 | 43.61603 | -80.93481 | 35918 ft | 389 kts | 286° |
| 2026-05-06 15:34 | 43.63657 | -81.00387 | 35921 ft | 389 kts | 286° |
| 2026-05-06 15:35 | 43.65710 | -81.07295 | 35923 ft | 389 kts | 286° |
| 2026-05-06 15:35 | 43.67762 | -81.14215 | 35925 ft | 389 kts | 286° |
| 2026-05-06 15:36 | 43.69806 | -81.21146 | 35926 ft | 390 kts | 286° |
| 2026-05-06 15:36 | 43.71845 | -81.28087 | 35926 ft | 390 kts | 286° |
| 2026-05-06 15:37 | 43.73874 | -81.35038 | 35932 ft | 390 kts | 286° |
| 2026-05-06 15:37 | 43.75901 | -81.41992 | 35932 ft | 390 kts | 286° |
| 2026-05-06 15:38 | 43.77934 | -81.48949 | 35935 ft | 390 kts | 286° |
| 2026-05-06 15:38 | 43.79966 | -81.55922 | 35941 ft | 391 kts | 286° |
| 2026-05-06 15:39 | 43.81985 | -81.62857 | 35947 ft | 391 kts | 286° |
| 2026-05-06 15:39 | 43.84010 | -81.69852 | 35957 ft | 391 kts | 286° |
| 2026-05-06 15:40 | 43.86043 | -81.76901 | 35968 ft | 391 kts | 286° |
| 2026-05-06 15:40 | 43.88058 | -81.83903 | 35978 ft | 392 kts | 286° |
| 2026-05-06 15:41 | 43.90068 | -81.90925 | 35989 ft | 392 kts | 286° |
| 2026-05-06 15:41 | 43.92065 | -81.97905 | 35997 ft | 392 kts | 286° |
| 2026-05-06 15:42 | 43.94067 | -82.04941 | 36002 ft | 392 kts | 285° |
| 2026-05-06 15:42 | 43.96062 | -82.11985 | 36010 ft | 392 kts | 285° |
| 2026-05-06 15:43 | 43.97890 | -82.19087 | 36008 ft | 387 kts | 277° |
| 2026-05-06 15:43 | 43.98235 | -82.26434 | 36004 ft | 381 kts | 266° |
| 2026-05-06 15:44 | 43.98124 | -82.33788 | 35998 ft | 381 kts | 266° |
| 2026-05-06 15:44 | 43.98023 | -82.41149 | 35998 ft | 381 kts | 266° |
| 2026-05-06 15:45 | 43.97910 | -82.48503 | 35992 ft | 381 kts | 266° |
| 2026-05-06 15:45 | 43.97788 | -82.55866 | 35991 ft | 381 kts | 266° |
| 2026-05-06 15:46 | 43.97660 | -82.63221 | 35986 ft | 381 kts | 266° |
| 2026-05-06 15:46 | 43.97532 | -82.70557 | 35987 ft | 381 kts | 266° |
| 2026-05-06 15:47 | 43.97397 | -82.77904 | 35983 ft | 381 kts | 266° |
| 2026-05-06 15:47 | 43.97258 | -82.85248 | 35987 ft | 381 kts | 266° |
| 2026-05-06 15:48 | 43.97114 | -82.92591 | 35993 ft | 380 kts | 266° |
| 2026-05-06 15:48 | 43.96963 | -82.99929 | 35994 ft | 380 kts | 266° |
| 2026-05-06 15:49 | 43.96807 | -83.07264 | 35992 ft | 380 kts | 266° |
| 2026-05-06 15:49 | 43.96644 | -83.14596 | 35992 ft | 380 kts | 266° |
| 2026-05-06 15:50 | 43.96486 | -83.21931 | 35995 ft | 380 kts | 266° |
| 2026-05-06 15:50 | 43.96318 | -83.29260 | 35995 ft | 380 kts | 265° |
| 2026-05-06 15:51 | 43.96145 | -83.36576 | 35993 ft | 380 kts | 266° |
| 2026-05-06 15:51 | 43.95975 | -83.43904 | 35991 ft | 379 kts | 265° |
| 2026-05-06 15:52 | 43.95790 | -83.51210 | 35991 ft | 379 kts | 265° |
| 2026-05-06 15:52 | 43.95595 | -83.58517 | 35991 ft | 379 kts | 265° |
| 2026-05-06 15:53 | 43.95402 | -83.65823 | 35991 ft | 379 kts | 265° |
| 2026-05-06 15:53 | 43.95208 | -83.73121 | 35994 ft | 378 kts | 265° |
| 2026-05-06 15:54 | 43.95009 | -83.80420 | 35996 ft | 378 kts | 265° |
| 2026-05-06 15:54 | 43.94803 | -83.87713 | 35996 ft | 378 kts | 265° |
| 2026-05-06 15:55 | 43.94630 | -83.93767 | 35998 ft | 378 kts | 265° |
| 2026-05-06 15:55 | 43.94380 | -84.02290 | 35993 ft | 378 kts | 265° |
| 2026-05-06 15:56 | 43.94199 | -84.08343 | 35995 ft | 378 kts | 265° |
| 2026-05-06 15:56 | 43.93974 | -84.15627 | 35986 ft | 378 kts | 265° |
| 2026-05-06 15:57 | 43.93753 | -84.22903 | 35995 ft | 377 kts | 265° |
| 2026-05-06 15:57 | 43.93521 | -84.30177 | 35996 ft | 377 kts | 265° |
| 2026-05-06 15:58 | 43.93323 | -84.37448 | 35993 ft | 378 kts | 269° |
| 2026-05-06 15:58 | 43.94240 | -84.44669 | 35992 ft | 382 kts | 278° |
| 2026-05-06 15:59 | 43.95428 | -84.51859 | 35995 ft | 382 kts | 278° |
| 2026-05-06 15:59 | 43.96610 | -84.59059 | 35997 ft | 382 kts | 278° |
| 2026-05-06 16:00 | 43.97780 | -84.66260 | 35997 ft | 382 kts | 278° |
| 2026-05-06 16:00 | 43.98946 | -84.73459 | 35998 ft | 382 kts | 278° |
| 2026-05-06 16:01 | 44.00103 | -84.80653 | 35994 ft | 379 kts | 277° |
| 2026-05-06 16:01 | 44.01246 | -84.87764 | 35991 ft | 381 kts | 278° |
| 2026-05-06 16:02 | 44.02393 | -84.94948 | 35990 ft | 381 kts | 278° |
| 2026-05-06 16:02 | 44.03538 | -85.02122 | 35989 ft | 381 kts | 278° |
| 2026-05-06 16:03 | 44.04676 | -85.09307 | 35986 ft | 380 kts | 278° |
| 2026-05-06 16:03 | 44.05807 | -85.16488 | 35989 ft | 380 kts | 278° |
| 2026-05-06 16:04 | 44.06933 | -85.23681 | 35995 ft | 380 kts | 278° |
| 2026-05-06 16:04 | 44.08054 | -85.30861 | 35994 ft | 380 kts | 278° |
| 2026-05-06 16:05 | 44.09172 | -85.38034 | 35994 ft | 380 kts | 277° |
| 2026-05-06 16:05 | 44.10283 | -85.45212 | 35993 ft | 379 kts | 278° |
| 2026-05-06 16:06 | 44.11395 | -85.52395 | 35991 ft | 379 kts | 277° |
| 2026-05-06 16:06 | 44.12420 | -85.59073 | 35997 ft | 379 kts | 277° |
| 2026-05-06 16:07 | 44.13520 | -85.66242 | 35999 ft | 379 kts | 277° |
| 2026-05-06 16:07 | 44.14615 | -85.73418 | 35998 ft | 379 kts | 277° |
| 2026-05-06 16:08 | 44.15701 | -85.80585 | 36003 ft | 378 kts | 277° |
| 2026-05-06 16:08 | 44.16783 | -85.87749 | 36009 ft | 378 kts | 277° |
| 2026-05-06 16:09 | 44.17861 | -85.94916 | 36017 ft | 378 kts | 277° |
| 2026-05-06 16:09 | 44.18934 | -86.02090 | 36024 ft | 378 kts | 277° |
| 2026-05-06 16:10 | 44.20006 | -86.09261 | 36026 ft | 378 kts | 277° |
| 2026-05-06 16:10 | 44.21069 | -86.16430 | 36033 ft | 378 kts | 277° |
| 2026-05-06 16:11 | 44.22124 | -86.23599 | 36031 ft | 377 kts | 277° |
| 2026-05-06 16:11 | 44.23173 | -86.30774 | 36033 ft | 377 kts | 277° |
| 2026-05-06 16:12 | 44.24220 | -86.37946 | 36032 ft | 377 kts | 277° |
| 2026-05-06 16:12 | 44.25268 | -86.45114 | 36036 ft | 377 kts | 277° |
| 2026-05-06 16:13 | 44.26308 | -86.52274 | 36037 ft | 377 kts | 277° |
| 2026-05-06 16:13 | 44.27342 | -86.59442 | 36040 ft | 377 kts | 277° |
| 2026-05-06 16:14 | 44.28370 | -86.66607 | 36048 ft | 377 kts | 277° |
| 2026-05-06 16:14 | 44.29389 | -86.73726 | 36047 ft | 376 kts | 277° |
| 2026-05-06 16:15 | 44.30405 | -86.80892 | 36050 ft | 376 kts | 277° |
| 2026-05-06 16:15 | 44.31417 | -86.88062 | 36048 ft | 376 kts | 277° |
| 2026-05-06 16:16 | 44.32426 | -86.95243 | 36048 ft | 376 kts | 277° |
| 2026-05-06 16:16 | 44.33429 | -87.02416 | 36047 ft | 376 kts | 277° |
| 2026-05-06 16:17 | 44.34433 | -87.09590 | 36042 ft | 376 kts | 277° |
| 2026-05-06 16:17 | 44.35431 | -87.16764 | 36039 ft | 376 kts | 277° |
| 2026-05-06 16:18 | 44.36421 | -87.23939 | 36032 ft | 376 kts | 277° |
| 2026-05-06 16:18 | 44.37411 | -87.31115 | 36025 ft | 376 kts | 277° |
| 2026-05-06 16:19 | 44.38392 | -87.38289 | 36020 ft | 376 kts | 277° |
| 2026-05-06 16:19 | 44.39367 | -87.45473 | 36016 ft | 376 kts | 277° |
| 2026-05-06 16:20 | 44.40344 | -87.52660 | 36015 ft | 376 kts | 277° |
| 2026-05-06 16:20 | 44.41317 | -87.59850 | 36015 ft | 376 kts | 277° |
| 2026-05-06 16:21 | 44.42277 | -87.67045 | 36012 ft | 376 kts | 277° |
| 2026-05-06 16:21 | 44.43234 | -87.74245 | 36016 ft | 376 kts | 277° |
| 2026-05-06 16:22 | 44.44116 | -87.80914 | 36013 ft | 376 kts | 277° |
| 2026-05-06 16:22 | 44.45066 | -87.88115 | 36015 ft | 376 kts | 277° |
| 2026-05-06 16:23 | 44.46018 | -87.95317 | 36015 ft | 376 kts | 277° |
| 2026-05-06 16:23 | 44.46965 | -88.02511 | 36015 ft | 376 kts | 277° |
| 2026-05-06 16:24 | 44.47885 | -88.09537 | 36016 ft | 360 kts | 277° |
| 2026-05-06 16:24 | 44.48766 | -88.16386 | 36016 ft | 356 kts | 277° |
| 2026-05-06 16:25 | 44.49636 | -88.23211 | 36019 ft | 356 kts | 277° |
| 2026-05-06 16:25 | 44.50533 | -88.30029 | 36016 ft | 357 kts | 281° |
| 2026-05-06 16:26 | 44.52030 | -88.36705 | 36019 ft | 359 kts | 283° |
| 2026-05-06 16:26 | 44.53536 | -88.43385 | 36020 ft | 359 kts | 283° |
| 2026-05-06 16:27 | 44.55028 | -88.50070 | 36025 ft | 359 kts | 283° |
| 2026-05-06 16:27 | 44.56514 | -88.56758 | 36030 ft | 360 kts | 283° |
| 2026-05-06 16:28 | 44.58006 | -88.63455 | 36030 ft | 360 kts | 283° |
| 2026-05-06 16:28 | 44.59487 | -88.70149 | 36031 ft | 360 kts | 283° |
| 2026-05-06 16:29 | 44.60968 | -88.76858 | 36028 ft | 360 kts | 283° |
| 2026-05-06 16:29 | 44.62451 | -88.83579 | 36029 ft | 360 kts | 283° |
| 2026-05-06 16:30 | 44.63681 | -88.89164 | 36019 ft | 360 kts | 283° |
| 2026-05-06 16:30 | 44.65396 | -88.96984 | 36026 ft | 360 kts | 283° |
| 2026-05-06 16:31 | 44.66870 | -89.03722 | 36014 ft | 360 kts | 283° |
| 2026-05-06 16:31 | 44.68333 | -89.10462 | 36027 ft | 361 kts | 283° |
| 2026-05-06 16:32 | 44.69788 | -89.17211 | 36024 ft | 361 kts | 283° |
| 2026-05-06 16:32 | 44.71244 | -89.23958 | 36027 ft | 361 kts | 283° |
| 2026-05-06 16:33 | 44.72697 | -89.30702 | 36026 ft | 361 kts | 283° |
| 2026-05-06 16:34 | 44.74883 | -89.40840 | 36023 ft | 361 kts | 283° |
| 2026-05-06 16:34 | 44.76332 | -89.47612 | 36022 ft | 361 kts | 283° |
| 2026-05-06 16:35 | 44.77778 | -89.54389 | 36031 ft | 362 kts | 283° |
| 2026-05-06 16:35 | 44.79221 | -89.61175 | 36028 ft | 362 kts | 283° |
| 2026-05-06 16:36 | 44.80653 | -89.67972 | 36028 ft | 362 kts | 283° |
| 2026-05-06 16:36 | 44.82088 | -89.74770 | 36023 ft | 362 kts | 283° |
| 2026-05-06 16:37 | 44.83527 | -89.81575 | 36020 ft | 362 kts | 283° |
| 2026-05-06 16:37 | 44.84952 | -89.88387 | 36021 ft | 362 kts | 283° |
| 2026-05-06 16:38 | 44.86363 | -89.95163 | 36027 ft | 363 kts | 283° |
| 2026-05-06 16:38 | 44.87558 | -90.00941 | 36098 ft | 373 kts | 283° |
| 2026-05-06 16:39 | 44.88974 | -90.08132 | 36041 ft | 386 kts | 278° |
| 2026-05-06 16:39 | 44.89631 | -90.15200 | 36044 ft | 396 kts | 275° |
| 2026-05-06 16:40 | 44.90321 | -90.22991 | 36036 ft | 402 kts | 275° |
| 2026-05-06 16:40 | 44.91014 | -90.30843 | 36036 ft | 404 kts | 275° |
| 2026-05-06 16:41 | 44.91699 | -90.38710 | 36039 ft | 404 kts | 275° |
| 2026-05-06 16:41 | 44.92379 | -90.46589 | 36037 ft | 405 kts | 275° |
| 2026-05-06 16:42 | 44.93052 | -90.54477 | 36041 ft | 405 kts | 275° |
| 2026-05-06 16:42 | 44.93670 | -90.61899 | 36047 ft | 405 kts | 275° |
| 2026-05-06 16:43 | 44.94225 | -90.68596 | 36025 ft | 407 kts | 275° |
| 2026-05-06 16:43 | 44.94562 | -90.72607 | 35787 ft | 415 kts | 275° |
| 2026-05-06 16:43 | 44.94901 | -90.76638 | 35555 ft | 412 kts | 275° |
| 2026-05-06 16:43 | 44.95230 | -90.80591 | 35327 ft | 408 kts | 275° |
| 2026-05-06 16:44 | 44.95560 | -90.84560 | 35096 ft | 406 kts | 275° |
| 2026-05-06 16:44 | 44.95888 | -90.88516 | 34870 ft | 406 kts | 275° |
| 2026-05-06 16:44 | 44.96215 | -90.92468 | 34644 ft | 405 kts | 275° |
| 2026-05-06 16:44 | 44.96548 | -90.96468 | 34415 ft | 405 kts | 275° |
| 2026-05-06 16:45 | 44.96869 | -91.00361 | 34196 ft | 404 kts | 275° |
| 2026-05-06 16:45 | 44.97191 | -91.04304 | 33540 ft | 405 kts | 275° |
| 2026-05-06 16:45 | 44.97511 | -91.08263 | 32623 ft | 406 kts | 275° |
| 2026-05-06 16:45 | 44.97826 | -91.12231 | 31712 ft | 407 kts | 275° |
| 2026-05-06 16:46 | 44.98139 | -91.16206 | 30804 ft | 408 kts | 275° |
| 2026-05-06 16:46 | 44.98456 | -91.20207 | 29720 ft | 412 kts | 275° |
| 2026-05-06 16:46 | 44.98773 | -91.24197 | 28967 ft | 405 kts | 275° |
| 2026-05-06 16:46 | 44.99085 | -91.28113 | 28250 ft | 396 kts | 275° |
| 2026-05-06 16:47 | 44.99389 | -91.31913 | 27662 ft | 383 kts | 275° |
| 2026-05-06 16:47 | 44.99680 | -91.35587 | 27149 ft | 371 kts | 275° |
| 2026-05-06 16:47 | 44.99961 | -91.39186 | 26656 ft | 366 kts | 275° |
| 2026-05-06 16:47 | 45.00234 | -91.42736 | 26116 ft | 362 kts | 275° |
| 2026-05-06 16:48 | 45.00503 | -91.46255 | 25573 ft | 359 kts | 274° |
| 2026-05-06 16:48 | 45.00773 | -91.49793 | 25047 ft | 356 kts | 275° |
| 2026-05-06 16:48 | 45.01033 | -91.53208 | 24537 ft | 353 kts | 275° |
| 2026-05-06 16:48 | 45.01300 | -91.56686 | 24047 ft | 350 kts | 275° |
| 2026-05-06 16:49 | 45.01561 | -91.60099 | 23542 ft | 348 kts | 275° |
| 2026-05-06 16:49 | 45.01821 | -91.63488 | 23032 ft | 345 kts | 275° |
| 2026-05-06 16:49 | 45.02076 | -91.66834 | 22581 ft | 340 kts | 275° |
| 2026-05-06 16:49 | 45.02323 | -91.70139 | 22135 ft | 336 kts | 275° |
| 2026-05-06 16:50 | 45.02561 | -91.73371 | 21695 ft | 332 kts | 275° |
| 2026-05-06 16:50 | 45.02798 | -91.76603 | 21248 ft | 329 kts | 275° |
| 2026-05-06 16:50 | 45.02952 | -91.79817 | 20558 ft | 332 kts | 266° |
| 2026-05-06 16:50 | 45.02568 | -91.83089 | 19640 ft | 342 kts | 259° |
| 2026-05-06 16:51 | 45.02087 | -91.86398 | 18966 ft | 341 kts | 259° |
| 2026-05-06 16:51 | 45.01604 | -91.89650 | 18238 ft | 336 kts | 259° |
| 2026-05-06 16:51 | 45.01125 | -91.92862 | 17392 ft | 332 kts | 259° |
| 2026-05-06 16:51 | 45.00657 | -91.95998 | 16912 ft | 321 kts | 259° |
| 2026-05-06 16:52 | 45.00200 | -91.99064 | 16500 ft | 317 kts | 259° |
| 2026-05-06 16:52 | 44.99748 | -92.02113 | 16077 ft | 317 kts | 259° |
| 2026-05-06 16:52 | 44.99294 | -92.05174 | 15509 ft | 320 kts | 259° |
| 2026-05-06 16:52 | 44.98836 | -92.08246 | 15032 ft | 319 kts | 259° |
| 2026-05-06 16:53 | 44.98377 | -92.11304 | 14577 ft | 318 kts | 260° |
| 2026-05-06 16:53 | 44.97920 | -92.14351 | 14145 ft | 316 kts | 260° |
| 2026-05-06 16:53 | 44.97466 | -92.17381 | 13696 ft | 315 kts | 259° |
| 2026-05-06 16:53 | 44.96949 | -92.20379 | 13205 ft | 314 kts | 257° |
| 2026-05-06 16:54 | 44.96346 | -92.23317 | 12903 ft | 307 kts | 255° |
| 2026-05-06 16:54 | 44.95723 | -92.26139 | 12767 ft | 295 kts | 255° |
| 2026-05-06 16:54 | 44.95112 | -92.28853 | 12627 ft | 285 kts | 255° |
| 2026-05-06 16:54 | 44.94635 | -92.30971 | 12444 ft | 280 kts | 255° |
| 2026-05-06 16:55 | 44.94059 | -92.33577 | 12111 ft | 277 kts | 255° |
| 2026-05-06 16:55 | 44.93503 | -92.36135 | 11760 ft | 276 kts | 256° |
| 2026-05-06 16:55 | 44.92939 | -92.38755 | 11391 ft | 275 kts | 256° |
| 2026-05-06 16:55 | 44.92393 | -92.41296 | 11028 ft | 273 kts | 256° |
| 2026-05-06 16:56 | 44.91842 | -92.43858 | 10646 ft | 273 kts | 256° |
| 2026-05-06 16:56 | 44.91290 | -92.46411 | 10277 ft | 271 kts | 256° |
| 2026-05-06 16:56 | 44.90742 | -92.48948 | 9826 ft | 270 kts | 256° |
| 2026-05-06 16:56 | 44.90197 | -92.51475 | 9374 ft | 269 kts | 256° |
| 2026-05-06 16:57 | 44.89649 | -92.54012 | 8961 ft | 266 kts | 256° |
| 2026-05-06 16:57 | 44.89112 | -92.56495 | 8550 ft | 264 kts | 256° |
| 2026-05-06 16:57 | 44.88579 | -92.58965 | 8145 ft | 262 kts | 256° |
| 2026-05-06 16:57 | 44.88045 | -92.61415 | 7776 ft | 262 kts | 256° |
| 2026-05-06 16:58 | 44.87509 | -92.63862 | 7438 ft | 259 kts | 255° |
| 2026-05-06 16:58 | 44.86993 | -92.66244 | 7056 ft | 256 kts | 256° |
| 2026-05-06 16:58 | 44.86465 | -92.68667 | 6650 ft | 254 kts | 256° |
| 2026-05-06 16:58 | 44.86042 | -92.70624 | 6293 ft | 254 kts | 256° |
| 2026-05-06 16:59 | 44.85532 | -92.72979 | 5867 ft | 250 kts | 255° |
| 2026-05-06 16:59 | 44.85022 | -92.75326 | 5460 ft | 250 kts | 256° |
| 2026-05-06 16:59 | 44.84512 | -92.77667 | 5138 ft | 250 kts | 255° |
| 2026-05-06 16:59 | 44.84002 | -92.80001 | 4842 ft | 247 kts | 255° |
| 2026-05-06 17:00 | 44.83500 | -92.82275 | 4608 ft | 237 kts | 256° |
| 2026-05-06 17:00 | 44.83024 | -92.84441 | 4491 ft | 226 kts | 255° |
| 2026-05-06 17:00 | 44.82567 | -92.86505 | 4374 ft | 216 kts | 256° |
| 2026-05-06 17:00 | 44.82127 | -92.88497 | 4255 ft | 210 kts | 255° |
| 2026-05-06 17:01 | 44.81700 | -92.90417 | 4143 ft | 200 kts | 255° |
| 2026-05-06 17:01 | 44.81294 | -92.92239 | 4046 ft | 190 kts | 256° |
| 2026-05-06 17:01 | 44.80912 | -92.93965 | 4006 ft | 178 kts | 257° |
| 2026-05-06 17:01 | 44.80551 | -92.95594 | 4002 ft | 173 kts | 257° |
| 2026-05-06 17:02 | 44.80197 | -92.97197 | 4001 ft | 166 kts | 257° |
| 2026-05-06 17:02 | 44.79928 | -92.98710 | 4004 ft | 155 kts | 268° |
| 2026-05-06 17:02 | 44.79986 | -93.00188 | 4008 ft | 151 kts | 285° |
| 2026-05-06 17:02 | 44.80430 | -93.01517 | 3885 ft | 150 kts | 298° |
| 2026-05-06 17:03 | 44.80942 | -93.02791 | 3712 ft | 149 kts | 299° |
| 2026-05-06 17:03 | 44.81467 | -93.04039 | 3514 ft | 148 kts | 299° |
| 2026-05-06 17:03 | 44.81999 | -93.05279 | 3318 ft | 148 kts | 300° |
| 2026-05-06 17:03 | 44.82534 | -93.06518 | 3104 ft | 148 kts | 301° |
| 2026-05-06 17:04 | 44.83072 | -93.07758 | 2919 ft | 147 kts | 301° |
| 2026-05-06 17:04 | 44.83611 | -93.09000 | 2705 ft | 148 kts | 300° |
| 2026-05-06 17:04 | 44.84144 | -93.10229 | 2494 ft | 146 kts | 301° |
| 2026-05-06 17:04 | 44.84673 | -93.11447 | 2277 ft | 142 kts | 300° |
| 2026-05-06 17:05 | 44.85171 | -93.12593 | 2097 ft | 134 kts | 301° |
| 2026-05-06 17:05 | 44.85654 | -93.13702 | 1891 ft | 132 kts | 301° |
| 2026-05-06 17:05 | 44.86132 | -93.14804 | 1690 ft | 131 kts | 302° |
| 2026-05-06 17:05 | 44.86616 | -93.15910 | 1476 ft | 134 kts | 301° |
| 2026-05-06 17:06 | 44.87094 | -93.17022 | 1284 ft | 132 kts | 301° |
| 2026-05-06 17:06 | 44.87568 | -93.18119 | 1100 ft | 131 kts | 302° |
| 2026-05-06 17:06 | 44.88040 | -93.19205 | 914 ft | 129 kts | 301° |
| 2026-05-06 17:06 | 44.88504 | -93.20273 | 829 ft | 120 kts | 300° |
| 2026-05-06 17:07 | 44.88842 | -93.21052 | 826 ft | 54 kts | 301° |
| 2026-05-06 17:07 | 44.88911 | -93.21224 | 826 ft | 11 kts | 281° |
| 2026-05-06 17:07 | 44.88870 | -93.21304 | 824 ft | 9 kts | 216° |
| 2026-05-06 17:07 | 44.88819 | -93.21372 | 823 ft | 15 kts | 227° |
| 2026-05-06 17:08 | 44.88766 | -93.21410 | 823 ft | 6 kts | 143° |
| 2026-05-06 17:08 | 44.88752 | -93.21349 | 825 ft | 7 kts | 103° |
| 2026-05-06 17:08 | 44.88732 | -93.21279 | 825 ft | 11 kts | 116° |
| 2026-05-06 17:08 | 44.88697 | -93.21181 | 825 ft | 11 kts | 121° |
| 2026-05-06 17:09 | 44.88657 | -93.21086 | 824 ft | 16 kts | 117° |
| 2026-05-06 17:09 | 44.88597 | -93.20911 | 825 ft | 15 kts | 117° |
| 2026-05-06 17:09 | 44.88546 | -93.20825 | 825 ft | 10 kts | 138° |
| 2026-05-06 17:09 | 44.88505 | -93.20748 | 822 ft | 9 kts | 123° |
| 2026-05-06 17:10 | 44.88476 | -93.20675 | 823 ft | 8 kts | 119° |
| 2026-05-06 17:10 | 44.88451 | -93.20614 | 825 ft | 7 kts | 121° |
| 2026-05-06 17:10 | 44.88429 | -93.20563 | 823 ft | 6 kts | 121° |
| 2026-05-06 17:10 | 44.88401 | -93.20497 | 823 ft | 9 kts | 121° |
| 2026-05-06 17:11 | 44.88376 | -93.20440 | 822 ft | 1 kts | 121° |
| 2026-05-06 17:11 | 44.88373 | -93.20433 | 822 ft | 1 kts | 121° |
| 2026-05-06 17:11 | 44.88366 | -93.20422 | 824 ft | 1 kts | 129° |
| 2026-05-06 17:11 | 44.88347 | -93.20410 | 825 ft | 4 kts | 172° |
| 2026-05-06 17:12 | 44.88324 | -93.20403 | 825 ft | 3 kts | 167° |
| 2026-05-06 17:12 | 44.88307 | -93.20403 | 825 ft | 2 kts | 192° |
| 2026-05-06 17:12 | 44.88294 | -93.20412 | 825 ft | 1 kts | 213° |
| 2026-05-06 17:12 | 44.88290 | -93.20417 | 825 ft | 0 kts | 217° |
| 2026-05-06 17:13 | 44.88288 | -93.20419 | 825 ft | 0 kts | 217° |